sensor_id;sensor_type;location;lat;lon;timestamp;temperature;humidity
3190;DHT22;1606;51.946;10.558;2023-11-18T00:00:10;9.80;99.90
3190;DHT22;1606;51.946;10.558;2023-11-18T00:02:42;9.60;99.90
3190;DHT22;1606;51.946;10.558;2023-11-18T00:05:11;9.40;99.90
3190;DHT22;1606;51.946;10.558;2023-11-18T00:07:39;9.30;99.90
3190;DHT22;1606;51.946;10.558;2023-11-18T00:10:07;9.20;99.90
3190;DHT22;1606;51.946;10.558;2023-11-18T00:12:36;9.20;99.90
3190;DHT22;1606;51.946;10.558;2023-11-18T00:15:08;9.30;99.90
3190;DHT22;1606;51.946;10.558;2023-11-18T00:17:38;9.30;99.90
3190;DHT22;1606;51.946;10.558;2023-11-18T00:20:08;9.40;99.90
3190;DHT22;1606;51.946;10.558;2023-11-18T00:22:39;9.40;99.90
3190;DHT22;1606;51.946;10.558;2023-11-18T00:25:08;9.40;99.90
3190;DHT22;1606;51.946;10.558;2023-11-18T00:27:37;9.50;99.90
3190;DHT22;1606;51.946;10.558;2023-11-18T00:30:07;9.50;99.90
3190;DHT22;1606;51.946;10.558;2023-11-18T00:32:37;9.50;99.90
3190;DHT22;1606;51.946;10.558;2023-11-18T00:35:08;9.50;99.90
3190;DHT22;1606;51.946;10.558;2023-11-18T00:37:37;9.70;99.90
3190;DHT22;1606;51.946;10.558;2023-11-18T00:40:07;9.60;99.90
3190;DHT22;1606;51.946;10.558;2023-11-18T00:42:35;9.60;99.90
3190;DHT22;1606;51.946;10.558;2023-11-18T00:45:04;9.50;99.90
3190;DHT22;1606;51.946;10.558;2023-11-18T00:47:32;9.50;99.90
3190;DHT22;1606;51.946;10.558;2023-11-18T00:50:02;9.60;99.90
3190;DHT22;1606;51.946;10.558;2023-11-18T00:52:31;9.60;99.90
3190;DHT22;1606;51.946;10.558;2023-11-18T00:55:00;9.60;99.90
3190;DHT22;1606;51.946;10.558;2023-11-18T00:57:28;9.50;99.90
3190;DHT22;1606;51.946;10.558;2023-11-18T00:59:56;9.60;99.90
3190;DHT22;1606;51.946;10.558;2023-11-18T01:02:24;9.70;99.90
3190;DHT22;1606;51.946;10.558;2023-11-18T01:04:53;9.80;99.90
3190;DHT22;1606;51.946;10.558;2023-11-18T01:07:22;9.70;99.90
3190;DHT22;1606;51.946;10.558;2023-11-18T01:09:51;9.80;99.90
3190;DHT22;1606;51.946;10.558;2023-11-18T01:12:19;9.70;99.90
3190;DHT22;1606;51.946;10.558;2023-11-18T01:14:47;9.60;99.90
3190;DHT22;1606;51.946;10.558;2023-11-18T01:17:16;9.60;99.90
3190;DHT22;1606;51.946;10.558;2023-11-18T01:19:44;9.70;99.90
3190;DHT22;1606;51.946;10.558;2023-11-18T01:22:12;9.70;99.90
3190;DHT22;1606;51.946;10.558;2023-11-18T01:24:40;9.50;99.90
3190;DHT22;1606;51.946;10.558;2023-11-18T01:27:10;9.50;99.90
3190;DHT22;1606;51.946;10.558;2023-11-18T01:29:38;9.60;99.90
3190;DHT22;1606;51.946;10.558;2023-11-18T01:32:07;9.60;99.90
3190;DHT22;1606;51.946;10.558;2023-11-18T01:34:36;9.40;99.90
3190;DHT22;1606;51.946;10.558;2023-11-18T01:37:06;9.50;99.90
3190;DHT22;1606;51.946;10.558;2023-11-18T01:39:34;9.50;99.90
3190;DHT22;1606;51.946;10.558;2023-11-18T01:42:03;9.70;99.90
3190;DHT22;1606;51.946;10.558;2023-11-18T01:44:32;9.60;99.90
3190;DHT22;1606;51.946;10.558;2023-11-18T01:47:02;9.70;99.90
3190;DHT22;1606;51.946;10.558;2023-11-18T01:49:34;9.50;99.90
3190;DHT22;1606;51.946;10.558;2023-11-18T01:52:04;9.50;99.90
3190;DHT22;1606;51.946;10.558;2023-11-18T01:54:36;9.50;99.90
3190;DHT22;1606;51.946;10.558;2023-11-18T01:57:09;9.40;99.90
3190;DHT22;1606;51.946;10.558;2023-11-18T01:59:42;9.30;99.90
3190;DHT22;1606;51.946;10.558;2023-11-18T02:02:10;9.30;99.90
3190;DHT22;1606;51.946;10.558;2023-11-18T02:04:43;9.20;99.90
3190;DHT22;1606;51.946;10.558;2023-11-18T02:07:13;9.30;99.90
3190;DHT22;1606;51.946;10.558;2023-11-18T02:09:42;9.30;99.90
3190;DHT22;1606;51.946;10.558;2023-11-18T02:12:22;9.30;99.90
3190;DHT22;1606;51.946;10.558;2023-11-18T02:14:54;9.20;99.90
3190;DHT22;1606;51.946;10.558;2023-11-18T02:17:25;9.20;99.90
3190;DHT22;1606;51.946;10.558;2023-11-18T02:19:58;9.40;99.90
3190;DHT22;1606;51.946;10.558;2023-11-18T02:22:27;9.50;99.90
3190;DHT22;1606;51.946;10.558;2023-11-18T02:24:55;9.60;99.90
3190;DHT22;1606;51.946;10.558;2023-11-18T02:27:24;9.40;99.90
3190;DHT22;1606;51.946;10.558;2023-11-18T02:29:53;9.30;99.90
3190;DHT22;1606;51.946;10.558;2023-11-18T02:32:34;8.90;99.90
3190;DHT22;1606;51.946;10.558;2023-11-18T02:35:08;8.60;99.90
3190;DHT22;1606;51.946;10.558;2023-11-18T02:37:39;8.70;99.90
3190;DHT22;1606;51.946;10.558;2023-11-18T02:40:11;9.00;99.90
3190;DHT22;1606;51.946;10.558;2023-11-18T02:42:44;9.20;99.90
3190;DHT22;1606;51.946;10.558;2023-11-18T02:45:13;9.10;99.90
3190;DHT22;1606;51.946;10.558;2023-11-18T02:47:44;9.20;99.90
3190;DHT22;1606;51.946;10.558;2023-11-18T02:50:12;9.40;99.90
3190;DHT22;1606;51.946;10.558;2023-11-18T02:52:42;9.40;99.90
3190;DHT22;1606;51.946;10.558;2023-11-18T02:55:11;9.40;99.90
3190;DHT22;1606;51.946;10.558;2023-11-18T02:57:39;9.40;99.90
3190;DHT22;1606;51.946;10.558;2023-11-18T03:00:10;9.50;99.90
3190;DHT22;1606;51.946;10.558;2023-11-18T03:02:44;9.50;99.90
3190;DHT22;1606;51.946;10.558;2023-11-18T03:05:12;9.20;99.90
3190;DHT22;1606;51.946;10.558;2023-11-18T03:07:42;9.10;99.90
3190;DHT22;1606;51.946;10.558;2023-11-18T03:10:11;9.40;99.90
3190;DHT22;1606;51.946;10.558;2023-11-18T03:12:47;9.50;99.90
3190;DHT22;1606;51.946;10.558;2023-11-18T03:15:17;9.50;99.90
3190;DHT22;1606;51.946;10.558;2023-11-18T03:17:45;9.50;99.90
3190;DHT22;1606;51.946;10.558;2023-11-18T03:20:15;9.50;99.90
3190;DHT22;1606;51.946;10.558;2023-11-18T03:22:43;9.60;99.90
3190;DHT22;1606;51.946;10.558;2023-11-18T03:25:13;9.60;99.90
3190;DHT22;1606;51.946;10.558;2023-11-18T03:27:41;9.50;99.90
3190;DHT22;1606;51.946;10.558;2023-11-18T03:30:11;9.40;99.90
3190;DHT22;1606;51.946;10.558;2023-11-18T03:32:41;9.40;99.90
3190;DHT22;1606;51.946;10.558;2023-11-18T03:35:09;9.30;99.90
3190;DHT22;1606;51.946;10.558;2023-11-18T03:37:38;9.50;99.90
3190;DHT22;1606;51.946;10.558;2023-11-18T03:40:09;9.50;99.90
3190;DHT22;1606;51.946;10.558;2023-11-18T03:42:38;9.40;99.90
3190;DHT22;1606;51.946;10.558;2023-11-18T03:45:07;9.30;99.90
3190;DHT22;1606;51.946;10.558;2023-11-18T03:47:36;9.20;99.90
3190;DHT22;1606;51.946;10.558;2023-11-18T03:50:06;9.40;99.90
3190;DHT22;1606;51.946;10.558;2023-11-18T03:52:36;9.50;99.90
3190;DHT22;1606;51.946;10.558;2023-11-18T03:55:06;9.60;99.90
3190;DHT22;1606;51.946;10.558;2023-11-18T03:57:34;9.60;99.90
3190;DHT22;1606;51.946;10.558;2023-11-18T04:00:02;9.50;99.90
3190;DHT22;1606;51.946;10.558;2023-11-18T04:02:31;9.50;99.90
3190;DHT22;1606;51.946;10.558;2023-11-18T04:05:01;9.60;99.90
3190;DHT22;1606;51.946;10.558;2023-11-18T04:07:31;9.60;99.90
3190;DHT22;1606;51.946;10.558;2023-11-18T04:10:00;9.60;99.90
3190;DHT22;1606;51.946;10.558;2023-11-18T04:12:28;9.60;99.90
3190;DHT22;1606;51.946;10.558;2023-11-18T04:14:57;9.60;99.90
3190;DHT22;1606;51.946;10.558;2023-11-18T04:17:25;9.50;99.90
3190;DHT22;1606;51.946;10.558;2023-11-18T04:19:55;9.50;99.90
3190;DHT22;1606;51.946;10.558;2023-11-18T04:22:23;9.00;99.90
3190;DHT22;1606;51.946;10.558;2023-11-18T04:24:53;8.90;99.90
3190;DHT22;1606;51.946;10.558;2023-11-18T04:27:21;9.10;99.90
3190;DHT22;1606;51.946;10.558;2023-11-18T04:29:49;9.10;99.90
3190;DHT22;1606;51.946;10.558;2023-11-18T04:32:18;9.20;99.90
3190;DHT22;1606;51.946;10.558;2023-11-18T04:34:46;9.20;99.90
3190;DHT22;1606;51.946;10.558;2023-11-18T04:37:16;9.20;99.90
3190;DHT22;1606;51.946;10.558;2023-11-18T04:39:44;9.10;99.90
3190;DHT22;1606;51.946;10.558;2023-11-18T04:42:14;9.10;99.90
3190;DHT22;1606;51.946;10.558;2023-11-18T04:44:42;9.10;99.90
3190;DHT22;1606;51.946;10.558;2023-11-18T04:47:10;9.10;99.90
3190;DHT22;1606;51.946;10.558;2023-11-18T04:49:38;9.00;99.90
3190;DHT22;1606;51.946;10.558;2023-11-18T04:52:07;9.00;99.90
3190;DHT22;1606;51.946;10.558;2023-11-18T04:54:35;9.00;99.90
3190;DHT22;1606;51.946;10.558;2023-11-18T04:57:04;9.00;99.90
3190;DHT22;1606;51.946;10.558;2023-11-18T04:59:33;8.90;99.90
3190;DHT22;1606;51.946;10.558;2023-11-18T05:02:02;9.00;99.90
3190;DHT22;1606;51.946;10.558;2023-11-18T05:04:31;8.90;99.90
3190;DHT22;1606;51.946;10.558;2023-11-18T05:06:59;8.90;99.90
3190;DHT22;1606;51.946;10.558;2023-11-18T05:09:27;8.80;99.90
3190;DHT22;1606;51.946;10.558;2023-11-18T05:11:55;8.90;99.90
3190;DHT22;1606;51.946;10.558;2023-11-18T05:14:25;8.80;99.90
3190;DHT22;1606;51.946;10.558;2023-11-18T05:16:56;8.70;99.90
3190;DHT22;1606;51.946;10.558;2023-11-18T05:19:24;8.60;99.90
3190;DHT22;1606;51.946;10.558;2023-11-18T05:21:52;8.60;99.90
3190;DHT22;1606;51.946;10.558;2023-11-18T05:24:20;8.60;99.90
3190;DHT22;1606;51.946;10.558;2023-11-18T05:26:48;8.50;99.90
3190;DHT22;1606;51.946;10.558;2023-11-18T05:29:16;8.50;99.90
3190;DHT22;1606;51.946;10.558;2023-11-18T05:31:44;8.40;99.90
3190;DHT22;1606;51.946;10.558;2023-11-18T05:34:14;8.40;99.90
3190;DHT22;1606;51.946;10.558;2023-11-18T05:36:42;8.40;99.90
3190;DHT22;1606;51.946;10.558;2023-11-18T05:39:10;8.50;99.90
3190;DHT22;1606;51.946;10.558;2023-11-18T05:41:38;8.60;99.90
3190;DHT22;1606;51.946;10.558;2023-11-18T05:44:11;8.60;99.90
3190;DHT22;1606;51.946;10.558;2023-11-18T05:46:44;8.60;99.90
3190;DHT22;1606;51.946;10.558;2023-11-18T05:49:15;8.60;99.90
3190;DHT22;1606;51.946;10.558;2023-11-18T05:51:43;8.70;99.90
3190;DHT22;1606;51.946;10.558;2023-11-18T05:54:11;8.50;99.90
3190;DHT22;1606;51.946;10.558;2023-11-18T05:56:39;8.40;99.90
3190;DHT22;1606;51.946;10.558;2023-11-18T05:59:07;8.40;99.90
3190;DHT22;1606;51.946;10.558;2023-11-18T06:01:35;8.30;99.90
3190;DHT22;1606;51.946;10.558;2023-11-18T06:04:04;8.20;99.90
3190;DHT22;1606;51.946;10.558;2023-11-18T06:06:36;8.20;99.90
3190;DHT22;1606;51.946;10.558;2023-11-18T06:09:04;8.20;99.90
3190;DHT22;1606;51.946;10.558;2023-11-18T06:11:36;8.20;99.90
3190;DHT22;1606;51.946;10.558;2023-11-18T06:14:08;8.10;99.90
3190;DHT22;1606;51.946;10.558;2023-11-18T06:16:36;8.20;99.90
3190;DHT22;1606;51.946;10.558;2023-11-18T06:19:08;8.10;99.90
3190;DHT22;1606;51.946;10.558;2023-11-18T06:21:38;8.10;99.90
3190;DHT22;1606;51.946;10.558;2023-11-18T06:24:06;8.00;99.90
3190;DHT22;1606;51.946;10.558;2023-11-18T06:26:38;8.00;99.90
3190;DHT22;1606;51.946;10.558;2023-11-18T06:29:06;7.90;99.90
3190;DHT22;1606;51.946;10.558;2023-11-18T06:31:34;7.90;99.90
3190;DHT22;1606;51.946;10.558;2023-11-18T06:34:02;7.80;99.90
3190;DHT22;1606;51.946;10.558;2023-11-18T06:36:30;7.70;99.90
3190;DHT22;1606;51.946;10.558;2023-11-18T06:39:00;7.70;99.90
3190;DHT22;1606;51.946;10.558;2023-11-18T06:41:28;7.60;99.90
3190;DHT22;1606;51.946;10.558;2023-11-18T06:44:00;7.70;99.90
3190;DHT22;1606;51.946;10.558;2023-11-18T06:46:36;7.70;99.90
3190;DHT22;1606;51.946;10.558;2023-11-18T06:49:07;7.70;99.90
3190;DHT22;1606;51.946;10.558;2023-11-18T06:51:38;7.80;99.90
3190;DHT22;1606;51.946;10.558;2023-11-18T06:54:07;7.80;99.90
3190;DHT22;1606;51.946;10.558;2023-11-18T06:56:39;7.70;99.90
3190;DHT22;1606;51.946;10.558;2023-11-18T06:59:09;7.60;99.90
3190;DHT22;1606;51.946;10.558;2023-11-18T07:01:39;7.70;99.90
3190;DHT22;1606;51.946;10.558;2023-11-18T07:04:09;7.70;99.90
3190;DHT22;1606;51.946;10.558;2023-11-18T07:06:37;7.80;99.90
3190;DHT22;1606;51.946;10.558;2023-11-18T07:09:09;7.80;99.90
3190;DHT22;1606;51.946;10.558;2023-11-18T07:11:41;7.90;99.90
3190;DHT22;1606;51.946;10.558;2023-11-18T07:14:12;7.90;99.90
3190;DHT22;1606;51.946;10.558;2023-11-18T07:16:45;8.00;99.90
3190;DHT22;1606;51.946;10.558;2023-11-18T07:19:14;8.00;99.90
3190;DHT22;1606;51.946;10.558;2023-11-18T07:21:50;8.10;99.90
3190;DHT22;1606;51.946;10.558;2023-11-18T07:24:21;8.10;99.90
3190;DHT22;1606;51.946;10.558;2023-11-18T07:26:49;8.10;99.90
3190;DHT22;1606;51.946;10.558;2023-11-18T07:29:18;8.00;99.90
3190;DHT22;1606;51.946;10.558;2023-11-18T07:31:49;7.90;99.90
3190;DHT22;1606;51.946;10.558;2023-11-18T07:34:17;7.90;99.90
3190;DHT22;1606;51.946;10.558;2023-11-18T07:36:48;7.90;99.90
3190;DHT22;1606;51.946;10.558;2023-11-18T07:39:16;7.90;99.90
3190;DHT22;1606;51.946;10.558;2023-11-18T07:41:53;8.00;99.90
3190;DHT22;1606;51.946;10.558;2023-11-18T07:44:21;8.00;99.90
3190;DHT22;1606;51.946;10.558;2023-11-18T07:46:50;8.00;99.90
3190;DHT22;1606;51.946;10.558;2023-11-18T07:49:21;7.90;99.90
3190;DHT22;1606;51.946;10.558;2023-11-18T07:51:53;7.80;99.90
3190;DHT22;1606;51.946;10.558;2023-11-18T07:54:21;7.90;99.90
3190;DHT22;1606;51.946;10.558;2023-11-18T07:56:54;7.90;99.90
3190;DHT22;1606;51.946;10.558;2023-11-18T07:59:24;7.80;99.90
3190;DHT22;1606;51.946;10.558;2023-11-18T08:01:53;7.90;99.90
3190;DHT22;1606;51.946;10.558;2023-11-18T08:04:23;7.90;99.90
3190;DHT22;1606;51.946;10.558;2023-11-18T08:06:53;7.90;99.90
3190;DHT22;1606;51.946;10.558;2023-11-18T08:09:22;8.00;99.90
3190;DHT22;1606;51.946;10.558;2023-11-18T08:11:53;8.00;99.90
3190;DHT22;1606;51.946;10.558;2023-11-18T08:14:23;8.00;99.90
3190;DHT22;1606;51.946;10.558;2023-11-18T08:16:51;8.00;99.90
3190;DHT22;1606;51.946;10.558;2023-11-18T08:19:20;8.10;99.90
3190;DHT22;1606;51.946;10.558;2023-11-18T08:21:50;8.20;99.90
3190;DHT22;1606;51.946;10.558;2023-11-18T08:24:18;8.30;99.90
3190;DHT22;1606;51.946;10.558;2023-11-18T08:26:50;8.50;99.90
3190;DHT22;1606;51.946;10.558;2023-11-18T08:29:20;8.60;99.90
3190;DHT22;1606;51.946;10.558;2023-11-18T08:31:48;8.60;99.90
3190;DHT22;1606;51.946;10.558;2023-11-18T08:34:16;8.70;99.90
3190;DHT22;1606;51.946;10.558;2023-11-18T08:36:45;8.70;99.90
3190;DHT22;1606;51.946;10.558;2023-11-18T08:39:14;8.80;99.90
3190;DHT22;1606;51.946;10.558;2023-11-18T08:41:43;8.80;99.90
3190;DHT22;1606;51.946;10.558;2023-11-18T08:44:13;8.80;99.90
3190;DHT22;1606;51.946;10.558;2023-11-18T08:46:52;8.80;99.90
3190;DHT22;1606;51.946;10.558;2023-11-18T08:49:20;8.90;99.90
3190;DHT22;1606;51.946;10.558;2023-11-18T08:51:49;8.90;99.90
3190;DHT22;1606;51.946;10.558;2023-11-18T08:54:23;8.90;99.90
3190;DHT22;1606;51.946;10.558;2023-11-18T08:56:52;8.90;99.90
3190;DHT22;1606;51.946;10.558;2023-11-18T08:59:21;8.90;99.90
3190;DHT22;1606;51.946;10.558;2023-11-18T09:01:53;9.00;99.90
3190;DHT22;1606;51.946;10.558;2023-11-18T09:04:23;9.10;99.90
3190;DHT22;1606;51.946;10.558;2023-11-18T09:06:52;9.10;99.90
3190;DHT22;1606;51.946;10.558;2023-11-18T09:09:21;9.30;99.90
3190;DHT22;1606;51.946;10.558;2023-11-18T09:11:54;9.40;99.90
3190;DHT22;1606;51.946;10.558;2023-11-18T09:14:24;9.50;99.90
3190;DHT22;1606;51.946;10.558;2023-11-18T09:16:54;9.50;99.90
3190;DHT22;1606;51.946;10.558;2023-11-18T09:19:23;9.70;99.90
3190;DHT22;1606;51.946;10.558;2023-11-18T09:21:52;9.60;99.90
3190;DHT22;1606;51.946;10.558;2023-11-18T09:24:21;9.70;99.90
3190;DHT22;1606;51.946;10.558;2023-11-18T09:26:54;9.70;99.90
3190;DHT22;1606;51.946;10.558;2023-11-18T09:29:22;9.70;99.90
3190;DHT22;1606;51.946;10.558;2023-11-18T09:31:53;9.80;99.90
3190;DHT22;1606;51.946;10.558;2023-11-18T09:34:22;9.90;99.90
3190;DHT22;1606;51.946;10.558;2023-11-18T09:36:54;10.00;99.90
3190;DHT22;1606;51.946;10.558;2023-11-18T09:39:22;10.10;99.90
3190;DHT22;1606;51.946;10.558;2023-11-18T09:42:06;10.20;99.90
3190;DHT22;1606;51.946;10.558;2023-11-18T09:44:41;10.20;99.90
3190;DHT22;1606;51.946;10.558;2023-11-18T09:47:12;10.20;99.90
3190;DHT22;1606;51.946;10.558;2023-11-18T09:49:45;10.10;99.90
3190;DHT22;1606;51.946;10.558;2023-11-18T09:52:16;10.20;99.90
3190;DHT22;1606;51.946;10.558;2023-11-18T09:54:50;10.30;99.90
3190;DHT22;1606;51.946;10.558;2023-11-18T09:57:30;10.20;99.90
3190;DHT22;1606;51.946;10.558;2023-11-18T10:00:01;10.30;99.90
3190;DHT22;1606;51.946;10.558;2023-11-18T10:02:46;10.30;99.90
3190;DHT22;1606;51.946;10.558;2023-11-18T10:05:20;10.50;99.90
3190;DHT22;1606;51.946;10.558;2023-11-18T10:07:50;10.40;99.90
3190;DHT22;1606;51.946;10.558;2023-11-18T10:10:19;10.40;99.90
3190;DHT22;1606;51.946;10.558;2023-11-18T10:12:49;10.50;99.90
3190;DHT22;1606;51.946;10.558;2023-11-18T10:15:22;10.50;99.90
3190;DHT22;1606;51.946;10.558;2023-11-18T10:17:53;10.30;99.90
3190;DHT22;1606;51.946;10.558;2023-11-18T10:20:43;10.20;99.90
3190;DHT22;1606;51.946;10.558;2023-11-18T10:23:13;10.20;99.90
3190;DHT22;1606;51.946;10.558;2023-11-18T10:25:46;10.60;99.90
3190;DHT22;1606;51.946;10.558;2023-11-18T10:28:25;10.50;99.90
3190;DHT22;1606;51.946;10.558;2023-11-18T10:30:55;10.50;99.90
3190;DHT22;1606;51.946;10.558;2023-11-18T10:33:27;10.70;99.90
3190;DHT22;1606;51.946;10.558;2023-11-18T10:35:58;11.00;99.90
3190;DHT22;1606;51.946;10.558;2023-11-18T10:38:30;11.30;99.90
3190;DHT22;1606;51.946;10.558;2023-11-18T10:40:59;11.40;99.90
3190;DHT22;1606;51.946;10.558;2023-11-18T10:43:28;11.60;99.90
3190;DHT22;1606;51.946;10.558;2023-11-18T10:46:07;11.60;99.90
3190;DHT22;1606;51.946;10.558;2023-11-18T10:48:44;11.80;99.90
3190;DHT22;1606;51.946;10.558;2023-11-18T10:51:15;12.00;99.90
3190;DHT22;1606;51.946;10.558;2023-11-18T10:53:47;12.10;99.90
3190;DHT22;1606;51.946;10.558;2023-11-18T10:56:25;12.10;99.90
3190;DHT22;1606;51.946;10.558;2023-11-18T10:58:56;12.30;99.90
3190;DHT22;1606;51.946;10.558;2023-11-18T11:01:29;12.40;99.90
3190;DHT22;1606;51.946;10.558;2023-11-18T11:04:00;12.50;99.90
3190;DHT22;1606;51.946;10.558;2023-11-18T11:06:32;12.50;99.90
3190;DHT22;1606;51.946;10.558;2023-11-18T11:09:01;12.70;99.90
3190;DHT22;1606;51.946;10.558;2023-11-18T11:11:39;12.70;99.90
3190;DHT22;1606;51.946;10.558;2023-11-18T11:14:08;12.60;99.90
3190;DHT22;1606;51.946;10.558;2023-11-18T11:16:41;12.60;99.90
3190;DHT22;1606;51.946;10.558;2023-11-18T11:19:18;12.50;99.90
3190;DHT22;1606;51.946;10.558;2023-11-18T11:21:52;12.80;99.90
3190;DHT22;1606;51.946;10.558;2023-11-18T11:24:28;12.90;99.90
3190;DHT22;1606;51.946;10.558;2023-11-18T11:27:07;12.80;99.90
3190;DHT22;1606;51.946;10.558;2023-11-18T11:29:48;12.70;99.90
3190;DHT22;1606;51.946;10.558;2023-11-18T11:32:25;12.80;99.90
3190;DHT22;1606;51.946;10.558;2023-11-18T11:35:01;12.70;99.90
3190;DHT22;1606;51.946;10.558;2023-11-18T11:37:35;12.50;99.90
3190;DHT22;1606;51.946;10.558;2023-11-18T11:40:05;12.40;99.90
3190;DHT22;1606;51.946;10.558;2023-11-18T11:42:36;12.40;99.90
3190;DHT22;1606;51.946;10.558;2023-11-18T11:45:07;12.40;99.90
3190;DHT22;1606;51.946;10.558;2023-11-18T11:47:46;12.40;99.90
3190;DHT22;1606;51.946;10.558;2023-11-18T11:50:22;12.40;99.90
3190;DHT22;1606;51.946;10.558;2023-11-18T11:53:07;12.40;99.90
3190;DHT22;1606;51.946;10.558;2023-11-18T11:55:45;12.40;99.90
3190;DHT22;1606;51.946;10.558;2023-11-18T11:58:26;12.40;99.90
3190;DHT22;1606;51.946;10.558;2023-11-18T12:00:54;12.40;99.90
3190;DHT22;1606;51.946;10.558;2023-11-18T12:03:22;12.30;99.90
3190;DHT22;1606;51.946;10.558;2023-11-18T12:05:55;12.20;99.90
3190;DHT22;1606;51.946;10.558;2023-11-18T12:08:23;12.10;99.90
3190;DHT22;1606;51.946;10.558;2023-11-18T12:10:54;12.10;99.90
3190;DHT22;1606;51.946;10.558;2023-11-18T12:13:21;12.20;99.90
3190;DHT22;1606;51.946;10.558;2023-11-18T12:15:53;12.00;99.90
3190;DHT22;1606;51.946;10.558;2023-11-18T12:18:25;12.00;99.90
3190;DHT22;1606;51.946;10.558;2023-11-18T12:20:54;12.00;99.90
3190;DHT22;1606;51.946;10.558;2023-11-18T12:23:24;11.80;99.90
3190;DHT22;1606;51.946;10.558;2023-11-18T12:25:52;11.70;99.90
3190;DHT22;1606;51.946;10.558;2023-11-18T12:28:25;11.60;99.90
3190;DHT22;1606;51.946;10.558;2023-11-18T12:30:55;11.50;99.90
3190;DHT22;1606;51.946;10.558;2023-11-18T12:34:01;11.50;99.90
3190;DHT22;1606;51.946;10.558;2023-11-18T12:37:12;11.70;99.90
3190;DHT22;1606;51.946;10.558;2023-11-18T12:43:03;11.90;99.90
3190;DHT22;1606;51.946;10.558;2023-11-18T12:45:43;12.00;99.90
3190;DHT22;1606;51.946;10.558;2023-11-18T12:48:17;12.10;99.90
3190;DHT22;1606;51.946;10.558;2023-11-18T12:50:51;12.20;99.90
3190;DHT22;1606;51.946;10.558;2023-11-18T12:53:23;12.30;99.90
3190;DHT22;1606;51.946;10.558;2023-11-18T12:55:52;12.20;99.90
3190;DHT22;1606;51.946;10.558;2023-11-18T12:58:21;12.20;99.90
3190;DHT22;1606;51.946;10.558;2023-11-18T13:00:50;12.20;99.90
3190;DHT22;1606;51.946;10.558;2023-11-18T13:03:18;12.20;99.90
3190;DHT22;1606;51.946;10.558;2023-11-18T13:05:47;12.20;99.90
3190;DHT22;1606;51.946;10.558;2023-11-18T13:08:15;12.30;99.90
3190;DHT22;1606;51.946;10.558;2023-11-18T13:10:45;12.30;99.90
3190;DHT22;1606;51.946;10.558;2023-11-18T13:13:13;12.20;99.90
3190;DHT22;1606;51.946;10.558;2023-11-18T13:15:44;12.30;99.90
3190;DHT22;1606;51.946;10.558;2023-11-18T13:18:13;12.40;99.90
3190;DHT22;1606;51.946;10.558;2023-11-18T13:20:41;12.40;99.10
3190;DHT22;1606;51.946;10.558;2023-11-18T13:23:21;12.30;99.00
3190;DHT22;1606;51.946;10.558;2023-11-18T13:25:54;12.30;99.30
3190;DHT22;1606;51.946;10.558;2023-11-18T13:28:23;12.20;99.80
3190;DHT22;1606;51.946;10.558;2023-11-18T13:30:51;12.20;99.90
3190;DHT22;1606;51.946;10.558;2023-11-18T13:33:19;12.10;99.40
3190;DHT22;1606;51.946;10.558;2023-11-18T13:35:49;12.10;99.50
3190;DHT22;1606;51.946;10.558;2023-11-18T13:38:17;12.10;99.60
3190;DHT22;1606;51.946;10.558;2023-11-18T13:40:46;12.10;99.90
3190;DHT22;1606;51.946;10.558;2023-11-18T13:43:17;12.00;99.90
3190;DHT22;1606;51.946;10.558;2023-11-18T13:45:51;12.00;99.90
3190;DHT22;1606;51.946;10.558;2023-11-18T13:48:21;12.00;99.90
3190;DHT22;1606;51.946;10.558;2023-11-18T13:50:53;11.90;99.90
3190;DHT22;1606;51.946;10.558;2023-11-18T13:53:21;11.90;99.90
3190;DHT22;1606;51.946;10.558;2023-11-18T13:55:49;11.90;99.90
3190;DHT22;1606;51.946;10.558;2023-11-18T13:58:19;11.80;99.90
3190;DHT22;1606;51.946;10.558;2023-11-18T14:00:47;11.80;99.90
3190;DHT22;1606;51.946;10.558;2023-11-18T14:03:18;11.80;99.90
3190;DHT22;1606;51.946;10.558;2023-11-18T14:05:50;11.80;99.90
3190;DHT22;1606;51.946;10.558;2023-11-18T14:08:18;11.80;99.90
3190;DHT22;1606;51.946;10.558;2023-11-18T14:10:47;11.80;99.90
3190;DHT22;1606;51.946;10.558;2023-11-18T14:13:30;11.80;99.90
3190;DHT22;1606;51.946;10.558;2023-11-18T14:16:01;11.70;99.90
3190;DHT22;1606;51.946;10.558;2023-11-18T14:18:30;11.70;99.90
3190;DHT22;1606;51.946;10.558;2023-11-18T14:20:58;11.60;99.90
3190;DHT22;1606;51.946;10.558;2023-11-18T14:23:30;11.50;99.90
3190;DHT22;1606;51.946;10.558;2023-11-18T14:25:58;11.40;99.90
3190;DHT22;1606;51.946;10.558;2023-11-18T14:28:26;11.40;99.90
3190;DHT22;1606;51.946;10.558;2023-11-18T14:30:57;11.30;99.90
3190;DHT22;1606;51.946;10.558;2023-11-18T14:33:25;11.30;99.90
3190;DHT22;1606;51.946;10.558;2023-11-18T14:35:54;11.20;99.90
3190;DHT22;1606;51.946;10.558;2023-11-18T14:38:23;11.20;99.90
3190;DHT22;1606;51.946;10.558;2023-11-18T14:40:51;11.20;99.90
3190;DHT22;1606;51.946;10.558;2023-11-18T14:43:20;11.20;99.90
3190;DHT22;1606;51.946;10.558;2023-11-18T14:45:48;11.20;99.90
3190;DHT22;1606;51.946;10.558;2023-11-18T14:48:17;11.20;99.90
3190;DHT22;1606;51.946;10.558;2023-11-18T14:50:45;11.20;99.90
3190;DHT22;1606;51.946;10.558;2023-11-18T14:53:13;11.20;99.90
3190;DHT22;1606;51.946;10.558;2023-11-18T14:55:41;11.10;99.90
3190;DHT22;1606;51.946;10.558;2023-11-18T14:58:10;11.00;99.90
3190;DHT22;1606;51.946;10.558;2023-11-18T15:00:38;11.20;99.90
3190;DHT22;1606;51.946;10.558;2023-11-18T15:03:06;11.20;99.90
3190;DHT22;1606;51.946;10.558;2023-11-18T15:05:36;11.10;99.90
3190;DHT22;1606;51.946;10.558;2023-11-18T15:08:05;11.00;99.90
3190;DHT22;1606;51.946;10.558;2023-11-18T15:10:36;11.10;99.90
3190;DHT22;1606;51.946;10.558;2023-11-18T15:13:06;11.10;99.90
3190;DHT22;1606;51.946;10.558;2023-11-18T15:15:39;11.10;99.90
3190;DHT22;1606;51.946;10.558;2023-11-18T15:18:08;11.20;99.90
3190;DHT22;1606;51.946;10.558;2023-11-18T15:20:42;11.00;99.90
3190;DHT22;1606;51.946;10.558;2023-11-18T15:23:15;11.00;99.90
3190;DHT22;1606;51.946;10.558;2023-11-18T15:25:48;10.90;99.90
3190;DHT22;1606;51.946;10.558;2023-11-18T15:28:20;10.80;99.90
3190;DHT22;1606;51.946;10.558;2023-11-18T15:30:48;10.80;99.90
3190;DHT22;1606;51.946;10.558;2023-11-18T15:33:16;10.80;99.90
3190;DHT22;1606;51.946;10.558;2023-11-18T15:35:46;10.90;99.90
3190;DHT22;1606;51.946;10.558;2023-11-18T15:38:13;10.90;99.90
3190;DHT22;1606;51.946;10.558;2023-11-18T15:40:48;10.90;99.90
3190;DHT22;1606;51.946;10.558;2023-11-18T15:43:16;11.00;99.90
3190;DHT22;1606;51.946;10.558;2023-11-18T15:45:45;11.00;99.90
3190;DHT22;1606;51.946;10.558;2023-11-18T15:48:13;10.90;99.90
3190;DHT22;1606;51.946;10.558;2023-11-18T15:50:41;10.80;99.90
3190;DHT22;1606;51.946;10.558;2023-11-18T15:53:11;10.80;99.90
3190;DHT22;1606;51.946;10.558;2023-11-18T15:55:41;10.70;99.90
3190;DHT22;1606;51.946;10.558;2023-11-18T15:58:14;10.60;99.90
3190;DHT22;1606;51.946;10.558;2023-11-18T16:00:42;10.60;99.90
3190;DHT22;1606;51.946;10.558;2023-11-18T16:03:10;10.70;99.90
3190;DHT22;1606;51.946;10.558;2023-11-18T16:05:40;10.70;99.90
3190;DHT22;1606;51.946;10.558;2023-11-18T16:08:08;10.70;99.90
3190;DHT22;1606;51.946;10.558;2023-11-18T16:10:38;10.60;99.90
3190;DHT22;1606;51.946;10.558;2023-11-18T16:13:09;10.70;99.90
3190;DHT22;1606;51.946;10.558;2023-11-18T16:15:37;10.80;99.90
3190;DHT22;1606;51.946;10.558;2023-11-18T16:18:06;10.80;99.90